createdAt,value
2019-05-17T00:01:57.777Z,5.40
2019-05-17T00:04:26.997Z,5.50
2019-05-17T00:06:56.996Z,4.40
2019-05-17T00:09:26.786Z,5.07
2019-05-17T00:11:56.673Z,4.93
2019-05-17T00:14:24.112Z,5.50
2019-05-17T00:16:51.571Z,5.00
2019-05-17T00:19:19.055Z,5.90
2019-05-17T00:21:47.564Z,5.50
2019-05-17T00:24:18.331Z,5.90
2019-05-17T00:26:46.710Z,5.60
2019-05-17T00:29:14.423Z,5.53
2019-05-17T00:31:42.732Z,4.83
2019-05-17T00:34:11.269Z,4.90
2019-05-17T00:36:39.091Z,5.27
2019-05-17T00:39:07.442Z,5.13
2019-05-17T00:41:37.306Z,5.10
2019-05-17T00:44:06.285Z,5.13
2019-05-17T00:46:33.963Z,4.53
2019-05-17T00:49:01.344Z,5.03
2019-05-17T00:51:28.825Z,5.27
2019-05-17T00:53:56.363Z,5.20
2019-05-17T00:56:23.881Z,5.07
2019-05-17T00:58:51.421Z,5.00
2019-05-17T01:01:18.986Z,5.07
2019-05-17T01:03:47.708Z,5.70
2019-05-17T01:06:17.055Z,5.67
2019-05-17T01:08:47.505Z,4.90
2019-05-17T01:11:16.382Z,5.10
2019-05-17T01:13:43.700Z,5.60
2019-05-17T01:16:11.135Z,5.07
2019-05-17T01:18:38.621Z,5.10
2019-05-17T01:21:06.579Z,5.07
2019-05-17T01:23:36.139Z,5.00
2019-05-17T01:26:03.628Z,5.53
2019-05-17T01:28:31.143Z,4.73
2019-05-17T01:30:59.154Z,5.50
2019-05-17T01:33:26.774Z,4.93
2019-05-17T01:35:57.118Z,5.30
2019-05-17T01:38:23.944Z,5.20
2019-05-17T01:40:51.984Z,5.10
2019-05-17T01:43:19.687Z,5.20
2019-05-17T01:45:48.031Z,5.83
2019-05-17T01:48:16.443Z,5.93
2019-05-17T01:50:46.373Z,5.97
2019-05-17T01:53:13.541Z,5.40
2019-05-17T01:55:41.077Z,6.20
2019-05-17T01:58:09.260Z,6.20
2019-05-17T02:00:37.566Z,5.03
2019-05-17T02:03:07.024Z,6.37
2019-05-17T02:05:37.080Z,5.70
2019-05-17T02:08:06.435Z,5.47
2019-05-17T02:10:33.785Z,5.90
2019-05-17T02:13:01.436Z,6.60
2019-05-17T02:15:28.957Z,7.10
2019-05-17T02:17:57.369Z,6.07
2019-05-17T02:20:27.374Z,6.07
2019-05-17T02:22:56.464Z,7.60
2019-05-17T02:25:24.504Z,7.17
2019-05-17T02:27:52.653Z,6.83
2019-05-17T02:30:23.375Z,6.63
2019-05-17T02:32:53.847Z,5.60
2019-05-17T02:35:22.844Z,6.40
2019-05-17T02:37:48.658Z,6.77
2019-05-17T02:40:16.896Z,7.10
2019-05-17T02:42:44.696Z,6.73
2019-05-17T02:45:13.485Z,6.80
2019-05-17T02:47:43.673Z,6.07
2019-05-17T02:50:12.958Z,6.50
2019-05-17T02:52:43.481Z,6.73
2019-05-17T02:55:12.868Z,6.43
2019-05-17T02:57:42.820Z,6.73
2019-05-17T03:00:12.982Z,6.50
2019-05-17T03:02:38.864Z,7.07
2019-05-17T03:05:07.054Z,6.77
2019-05-17T03:07:34.417Z,6.97
2019-05-17T03:10:13.906Z,7.37
2019-05-17T03:12:32.856Z,6.60
2019-05-17T03:15:03.750Z,7.23
2019-05-17T03:17:33.553Z,6.63
2019-05-17T03:20:03.580Z,6.70
2019-05-17T03:22:29.536Z,6.10
2019-05-17T03:24:57.200Z,6.50
2019-05-17T03:27:24.570Z,6.83
2019-05-17T03:29:53.674Z,6.53
2019-05-17T03:32:26.524Z,6.00
2019-05-17T03:34:56.111Z,6.63
2019-05-17T03:37:26.395Z,7.10
2019-05-17T03:39:53.422Z,7.30
2019-05-17T03:42:22.640Z,6.80
2019-05-17T03:44:52.898Z,7.57
2019-05-17T03:47:22.711Z,6.77
2019-05-17T03:49:52.904Z,6.93
2019-05-17T03:52:22.257Z,7.70
2019-05-17T03:54:52.806Z,7.60
2019-05-17T03:57:18.931Z,7.07
2019-05-17T03:59:46.410Z,7.70
2019-05-17T04:02:13.792Z,6.33
2019-05-17T04:04:42.967Z,8.17
2019-05-17T04:07:12.801Z,7.70
2019-05-17T04:09:43.467Z,7.73
2019-05-17T04:12:13.327Z,7.90
2019-05-17T04:14:42.664Z,7.90
2019-05-17T04:17:13.137Z,7.30
2019-05-17T04:19:42.584Z,7.50
2019-05-17T04:22:13.458Z,7.00
2019-05-17T04:24:43.597Z,7.03
2019-05-17T04:27:09.490Z,7.27
2019-05-17T04:29:36.957Z,7.13
2019-05-17T04:32:04.595Z,7.70
2019-05-17T04:34:33.588Z,7.37
2019-05-17T04:37:04.309Z,7.33
2019-05-17T04:39:32.715Z,7.00
2019-05-17T04:42:03.401Z,7.13
2019-05-17T04:44:32.062Z,8.10
2019-05-17T04:46:59.040Z,7.60
2019-05-17T04:49:27.488Z,7.40
2019-05-17T04:51:55.356Z,7.70
2019-05-17T04:54:23.146Z,7.43
2019-05-17T04:56:53.146Z,7.30
2019-05-17T04:59:19.941Z,8.00
2019-05-17T05:01:49.917Z,6.67
2019-05-17T05:04:17.552Z,7.90
2019-05-17T05:06:45.271Z,8.17
2019-05-17T05:09:13.364Z,7.80
2019-05-17T05:11:56.143Z,8.67
2019-05-17T05:14:12.812Z,8.80
2019-05-17T05:16:42.404Z,10.17
2019-05-17T05:19:09.531Z,9.97
2019-05-17T05:21:37.054Z,9.10
2019-05-17T05:24:04.524Z,9.27
2019-05-17T05:26:32.376Z,9.80
2019-05-17T05:29:02.219Z,9.77
2019-05-17T05:31:32.073Z,9.40
2019-05-17T05:34:01.671Z,10.13
2019-05-17T05:36:29.437Z,9.77
2019-05-17T05:38:57.239Z,10.40
2019-05-17T05:41:25.266Z,11.00
2019-05-17T05:43:52.785Z,10.87
2019-05-17T05:46:22.405Z,10.10
2019-05-17T05:48:52.221Z,10.73
2019-05-17T05:51:21.661Z,11.63
2019-05-17T05:53:52.052Z,11.07
2019-05-17T05:56:19.136Z,11.03
2019-05-17T05:58:46.641Z,11.90
2019-05-17T06:01:14.018Z,10.50
2019-05-17T06:03:41.510Z,11.00
2019-05-17T06:06:08.916Z,10.27
2019-05-17T06:08:36.250Z,11.03
2019-05-17T06:11:03.716Z,10.73
2019-05-17T06:13:32.518Z,10.13
2019-05-17T06:16:02.417Z,10.27
2019-05-17T06:18:31.677Z,10.17
2019-05-17T06:20:59.550Z,12.17
2019-05-17T06:23:27.480Z,10.40
2019-05-17T06:25:55.025Z,10.50
2019-05-17T06:28:22.464Z,10.03
2019-05-17T06:30:51.971Z,10.60
2019-05-17T06:33:27.977Z,11.10
2019-05-17T06:35:48.681Z,11.20
2019-05-17T06:38:16.150Z,10.97
2019-05-17T06:40:43.719Z,10.07
2019-05-17T06:43:13.115Z,11.00
2019-05-17T06:45:41.824Z,12.40
2019-05-17T06:48:11.721Z,11.53
2019-05-17T06:50:39.156Z,11.63
2019-05-17T06:53:06.732Z,11.30
2019-05-17T06:55:34.112Z,12.27
2019-05-17T06:58:01.818Z,11.73
2019-05-17T07:00:30.622Z,10.83
2019-05-17T07:03:00.538Z,12.60
2019-05-17T07:05:30.770Z,13.53
2019-05-17T07:08:00.309Z,12.93
2019-05-17T07:10:30.057Z,14.67
2019-05-17T07:13:01.221Z,14.27
2019-05-17T07:15:40.046Z,15.40
2019-05-17T07:17:59.742Z,15.67
2019-05-17T07:20:26.614Z,16.90
2019-05-17T07:22:54.561Z,16.73
2019-05-17T07:25:22.060Z,15.77
2019-05-17T07:27:50.335Z,16.40
2019-05-17T07:30:20.447Z,15.93
2019-05-17T07:32:49.852Z,14.10
2019-05-17T07:35:19.610Z,14.70
2019-05-17T07:37:46.522Z,16.30
2019-05-17T07:40:14.870Z,15.10
2019-05-17T07:42:42.215Z,13.73
2019-05-17T07:45:10.373Z,16.63
2019-05-17T07:47:40.463Z,14.03
2019-05-17T07:50:11.239Z,14.83
2019-05-17T07:52:39.886Z,14.70
2019-05-17T07:55:10.949Z,14.20
2019-05-17T07:57:40.615Z,14.67
2019-05-17T08:00:10.299Z,14.63
2019-05-17T08:02:40.058Z,15.10
2019-05-17T08:05:10.034Z,14.80
2019-05-17T08:07:40.293Z,15.00
2019-05-17T08:10:10.604Z,14.60
2019-05-17T08:12:40.257Z,14.03
2019-05-17T08:15:10.439Z,14.13
2019-05-17T08:17:39.623Z,13.37
2019-05-17T08:20:09.954Z,13.63
2019-05-17T08:22:39.571Z,13.67
2019-05-17T08:25:09.866Z,14.17
2019-05-17T08:27:37.170Z,12.60
2019-05-17T08:30:04.807Z,14.50
2019-05-17T08:32:32.499Z,12.17
2019-05-17T08:35:00.440Z,13.63
2019-05-17T08:37:30.261Z,13.43
2019-05-17T08:40:00.077Z,12.87
2019-05-17T08:42:30.027Z,14.20
2019-05-17T08:45:00.028Z,13.43
2019-05-17T08:47:29.877Z,12.30
2019-05-17T08:49:57.302Z,13.10
2019-05-17T08:52:24.792Z,12.20
2019-05-17T08:54:52.321Z,13.03
2019-05-17T08:57:20.633Z,11.93
2019-05-17T08:59:49.747Z,12.90
2019-05-17T09:02:19.726Z,12.80
2019-05-17T09:04:46.557Z,11.60
2019-05-17T09:07:14.363Z,11.80
2019-05-17T09:09:42.255Z,12.60
2019-05-17T09:12:11.050Z,13.33
2019-05-17T09:14:40.144Z,11.40
2019-05-17T09:17:10.233Z,13.13
2019-05-17T09:19:39.483Z,11.83
2019-05-17T09:22:07.180Z,12.00
2019-05-17T09:24:35.015Z,12.53
2019-05-17T09:27:02.776Z,12.07
2019-05-17T09:29:30.336Z,12.13
2019-05-17T09:31:59.953Z,11.93
2019-05-17T09:34:29.863Z,11.63
2019-05-17T09:36:56.895Z,12.50
2019-05-17T09:39:24.541Z,12.30
2019-05-17T09:41:51.998Z,13.57
2019-05-17T09:44:20.715Z,12.63
2019-05-17T09:46:50.319Z,12.43
2019-05-17T09:49:19.293Z,11.67
2019-05-17T09:51:47.059Z,11.83
2019-05-17T09:54:14.584Z,12.23
2019-05-17T09:56:41.934Z,13.30
2019-05-17T09:59:10.056Z,12.17
2019-05-17T10:01:39.471Z,12.70
2019-05-17T10:04:07.736Z,11.03
2019-05-17T10:06:35.336Z,12.00
2019-05-17T10:09:04.100Z,11.90
2019-05-17T10:11:33.880Z,12.00
2019-05-17T10:14:01.645Z,11.00
2019-05-17T10:16:30.735Z,11.20
2019-05-17T10:19:00.104Z,11.70
2019-05-17T10:21:30.230Z,11.57
2019-05-17T10:23:57.214Z,11.00
2019-05-17T10:26:24.552Z,12.90
2019-05-17T10:28:52.034Z,12.20
2019-05-17T10:31:19.904Z,11.77
2019-05-17T10:33:49.451Z,11.50
2019-05-17T10:36:16.836Z,11.37
2019-05-17T10:38:44.291Z,10.77
2019-05-17T10:41:12.070Z,10.60
2019-05-17T10:43:39.829Z,11.30
2019-05-17T10:46:10.360Z,11.03
2019-05-17T10:48:37.639Z,10.70
2019-05-17T10:51:05.031Z,9.97
2019-05-17T10:53:33.616Z,10.00
2019-05-17T10:56:01.128Z,10.60
2019-05-17T10:58:29.659Z,10.70
2019-05-17T11:01:00.557Z,11.83
2019-05-17T11:03:29.674Z,11.30
2019-05-17T11:05:59.604Z,9.43
2019-05-17T11:08:27.196Z,11.40
2019-05-17T11:10:55.366Z,10.67
2019-05-17T11:13:23.946Z,9.90
2019-05-17T11:15:51.629Z,10.20
2019-05-17T11:18:18.988Z,10.60
2019-05-17T11:20:46.740Z,9.43
2019-05-17T11:23:14.243Z,9.60
2019-05-17T11:25:45.953Z,9.10
2019-05-17T11:28:11.297Z,9.83
2019-05-17T11:30:38.808Z,9.13
2019-05-17T11:33:06.580Z,9.83
2019-05-17T11:35:34.370Z,8.70
2019-05-17T11:38:02.002Z,8.70
2019-05-17T11:40:29.506Z,8.50
2019-05-17T11:42:57.319Z,9.37
2019-05-17T11:45:29.010Z,9.20
2019-05-17T11:47:55.064Z,8.57
2019-05-17T11:50:22.511Z,8.00
2019-05-17T11:52:50.019Z,8.10
2019-05-17T11:55:17.516Z,7.77
2019-05-17T11:57:45.231Z,9.13
2019-05-17T12:00:14.310Z,8.60
2019-05-17T12:02:42.416Z,6.90
2019-05-17T12:05:10.194Z,6.60
2019-05-17T12:07:37.945Z,5.73
2019-05-17T12:10:05.765Z,5.37
2019-05-17T12:12:33.777Z,6.60
2019-05-17T12:15:02.096Z,5.40
2019-05-17T12:17:29.764Z,7.27
2019-05-17T12:19:57.584Z,7.00
2019-05-17T12:22:25.053Z,5.27
2019-05-17T12:24:52.567Z,5.50
2019-05-17T12:27:20.255Z,4.67
2019-05-17T12:29:48.146Z,6.00
2019-05-17T12:32:17.055Z,5.40
2019-05-17T12:34:45.312Z,5.57
2019-05-17T12:37:12.817Z,5.57
2019-05-17T12:39:40.305Z,5.40
2019-05-17T12:42:07.780Z,5.10
2019-05-17T12:44:37.329Z,5.70
2019-05-17T12:47:05.023Z,6.00
2019-05-17T12:49:32.432Z,5.50
2019-05-17T12:51:59.869Z,5.77
2019-05-17T12:54:27.465Z,5.70
2019-05-17T12:56:56.752Z,4.90
2019-05-17T12:59:24.260Z,5.50
2019-05-17T13:01:51.740Z,5.33
2019-05-17T13:04:19.475Z,5.83
2019-05-17T13:06:47.542Z,5.07
2019-05-17T13:09:14.966Z,5.10
2019-05-17T13:11:43.087Z,5.57
2019-05-17T13:14:10.576Z,5.83
2019-05-17T13:16:38.405Z,4.73
2019-05-17T13:19:05.948Z,4.33
2019-05-17T13:21:33.388Z,4.10
2019-05-17T13:24:02.240Z,5.77
2019-05-17T13:26:30.504Z,4.67
2019-05-17T13:28:58.019Z,4.67
2019-05-17T13:31:25.420Z,5.73
2019-05-17T13:33:53.897Z,5.60
2019-05-17T13:36:21.448Z,5.00
2019-05-17T13:38:49.291Z,5.47
2019-05-17T13:41:17.023Z,5.27
2019-05-17T13:43:44.523Z,5.30
2019-05-17T13:46:12.510Z,5.57
2019-05-17T13:48:40.021Z,6.07
2019-05-17T13:51:07.462Z,6.20
2019-05-17T13:53:35.030Z,4.67
2019-05-17T13:56:02.487Z,6.30
2019-05-17T13:58:30.189Z,5.87
2019-05-17T14:00:57.650Z,6.20
2019-05-17T14:03:25.206Z,4.97
2019-05-17T14:05:52.840Z,4.70
2019-05-17T14:08:20.302Z,5.00
2019-05-17T14:10:47.988Z,4.93
2019-05-17T14:13:15.772Z,4.93
2019-05-17T14:15:43.930Z,5.10
2019-05-17T14:18:11.724Z,5.77
2019-05-17T14:20:39.689Z,4.97
2019-05-17T14:23:07.187Z,4.73
2019-05-17T14:25:34.707Z,4.60
2019-05-17T14:28:02.272Z,5.17
2019-05-17T14:30:29.658Z,5.20
2019-05-17T14:32:57.567Z,5.13
2019-05-17T14:35:24.958Z,4.30
2019-05-17T14:37:52.343Z,4.90
2019-05-17T14:40:20.247Z,4.33
2019-05-17T14:42:47.993Z,3.50
2019-05-17T14:45:15.784Z,3.80
2019-05-17T14:47:43.508Z,3.60
2019-05-17T14:50:11.129Z,4.20
2019-05-17T14:52:38.715Z,4.53
2019-05-17T14:55:06.422Z,3.83
2019-05-17T14:57:33.824Z,4.17
2019-05-17T15:00:01.556Z,4.10
2019-05-17T15:02:29.063Z,4.43
2019-05-17T15:04:56.519Z,4.33
2019-05-17T15:07:24.217Z,3.70
2019-05-17T15:09:51.689Z,4.37
2019-05-17T15:12:27.925Z,3.97
2019-05-17T15:14:49.076Z,4.70
2019-05-17T15:17:17.047Z,4.27
2019-05-17T15:19:44.519Z,3.60
2019-05-17T15:22:11.878Z,3.57
2019-05-17T15:24:39.512Z,3.70
2019-05-17T15:27:07.052Z,4.23
2019-05-17T15:29:34.530Z,4.53
2019-05-17T15:32:02.023Z,4.57
2019-05-17T15:34:29.460Z,3.90
2019-05-17T15:36:57.580Z,4.17
2019-05-17T15:39:25.375Z,4.80
2019-05-17T15:41:53.022Z,4.10
2019-05-17T15:44:20.640Z,3.50
2019-05-17T15:46:48.290Z,4.40
2019-05-17T15:49:16.188Z,4.47
2019-05-17T15:51:44.497Z,3.60
2019-05-17T15:54:12.552Z,4.20
2019-05-17T15:56:40.036Z,4.50
2019-05-17T15:59:07.755Z,3.47
2019-05-17T16:01:35.248Z,4.40
2019-05-17T16:04:02.623Z,4.30
2019-05-17T16:06:30.360Z,3.40
2019-05-17T16:08:57.804Z,3.53
2019-05-17T16:11:25.402Z,4.80
2019-05-17T16:13:53.528Z,4.27
2019-05-17T16:16:20.851Z,4.20
2019-05-17T16:18:48.552Z,4.40
2019-05-17T16:21:16.080Z,5.30
2019-05-17T16:23:43.575Z,5.30
2019-05-17T16:26:11.528Z,5.23
2019-05-17T16:28:39.168Z,5.03
2019-05-17T16:31:06.676Z,4.17
2019-05-17T16:33:34.507Z,5.00
2019-05-17T16:36:02.130Z,5.83
2019-05-17T16:38:29.499Z,4.87
2019-05-17T16:40:56.969Z,4.50
2019-05-17T16:43:24.707Z,4.90
2019-05-17T16:45:52.101Z,5.37
2019-05-17T16:48:19.428Z,4.43
2019-05-17T16:50:47.128Z,4.37
2019-05-17T16:53:14.513Z,4.60
2019-05-17T16:55:42.164Z,4.60
2019-05-17T16:58:09.628Z,3.90
2019-05-17T17:00:39.155Z,4.27
2019-05-17T17:03:07.272Z,5.33
2019-05-17T17:05:35.163Z,8.97
2019-05-17T17:08:02.992Z,9.60
2019-05-17T17:10:30.716Z,11.40
2019-05-17T17:12:58.253Z,9.13
2019-05-17T17:15:26.144Z,6.17
2019-05-17T17:17:54.062Z,7.83
2019-05-17T17:20:21.941Z,5.23
2019-05-17T17:22:49.372Z,10.67
2019-05-17T17:25:17.050Z,8.73
2019-05-17T17:27:45.405Z,4.83
2019-05-17T17:30:14.799Z,7.87
2019-05-17T17:32:42.386Z,5.70
2019-05-17T17:35:10.001Z,4.73
2019-05-17T17:37:37.365Z,4.73
2019-05-17T17:40:05.362Z,5.10
2019-05-17T17:42:33.142Z,4.90
2019-05-17T17:45:00.990Z,4.77
2019-05-17T17:47:28.385Z,4.83
2019-05-17T17:49:56.193Z,4.77
2019-05-17T17:52:24.090Z,4.47
2019-05-17T17:54:51.469Z,4.00
2019-05-17T17:57:20.365Z,4.23
2019-05-17T17:59:47.878Z,3.70
2019-05-17T18:02:15.615Z,3.70
2019-05-17T18:04:43.297Z,4.20
2019-05-17T18:07:11.110Z,4.70
2019-05-17T18:09:38.477Z,3.87
2019-05-17T18:12:06.309Z,7.00
2019-05-17T18:14:33.821Z,8.20
2019-05-17T18:17:01.172Z,9.67
2019-05-17T18:19:29.026Z,9.87
2019-05-17T18:21:56.506Z,10.00
2019-05-17T18:24:23.894Z,23.73
2019-05-17T18:26:51.711Z,12.70
2019-05-17T18:29:19.294Z,6.73
2019-05-17T18:31:47.399Z,5.60
2019-05-17T18:34:15.273Z,4.97
2019-05-17T18:36:49.988Z,5.20
2019-05-17T18:39:17.485Z,4.17
2019-05-17T18:41:45.181Z,5.17
2019-05-17T18:44:25.949Z,6.23
2019-05-17T18:46:42.286Z,6.80
2019-05-17T18:49:09.848Z,8.43
2019-05-17T18:51:37.824Z,6.97
2019-05-17T18:54:05.984Z,5.93
2019-05-17T18:56:33.471Z,6.43
2019-05-17T18:59:00.977Z,6.70
2019-05-17T19:01:28.371Z,6.57
2019-05-17T19:03:56.116Z,7.70
2019-05-17T19:06:23.627Z,7.27
2019-05-17T19:08:52.315Z,6.20
2019-05-17T19:11:20.150Z,5.70
2019-05-17T19:13:47.877Z,5.10
2019-05-17T19:16:15.543Z,5.10
2019-05-17T19:18:42.904Z,6.40
2019-05-17T19:21:10.576Z,5.03
2019-05-17T19:23:38.297Z,6.13
2019-05-17T19:26:05.808Z,7.13
2019-05-17T19:28:33.362Z,6.70
2019-05-17T19:31:01.295Z,6.77
2019-05-17T19:33:28.674Z,7.20
2019-05-17T19:35:56.118Z,6.63
2019-05-17T19:38:23.682Z,7.90
2019-05-17T19:40:51.858Z,6.40
2019-05-17T19:43:19.604Z,6.00
2019-05-17T19:45:47.384Z,5.00
2019-05-17T19:48:15.323Z,4.50
2019-05-17T19:50:43.117Z,4.30
2019-05-17T19:53:10.626Z,5.23
2019-05-17T19:55:38.243Z,5.97
2019-05-17T19:58:06.611Z,5.30
2019-05-17T20:00:34.108Z,5.57
2019-05-17T20:03:01.837Z,5.27
2019-05-17T20:05:29.217Z,4.30
2019-05-17T20:07:57.154Z,5.23
2019-05-17T20:10:24.772Z,4.23
2019-05-17T20:12:52.574Z,4.20
2019-05-17T20:15:33.718Z,4.30
2019-05-17T20:17:49.410Z,4.50
2019-05-17T20:20:16.876Z,3.40
2019-05-17T20:22:44.572Z,4.00
2019-05-17T20:25:12.323Z,4.90
2019-05-17T20:27:39.710Z,5.23
2019-05-17T20:30:08.412Z,5.33
2019-05-17T20:32:36.047Z,5.63
2019-05-17T20:35:03.696Z,4.77
2019-05-17T20:37:31.659Z,4.80
2019-05-17T20:39:59.161Z,4.60
2019-05-17T20:42:26.828Z,3.90
2019-05-17T20:44:54.146Z,4.50
2019-05-17T20:47:22.296Z,4.43
2019-05-17T20:49:49.658Z,5.20
2019-05-17T20:52:17.429Z,4.27
2019-05-17T20:54:46.028Z,4.10
2019-05-17T20:57:13.534Z,3.90
2019-05-17T20:59:41.339Z,3.27
2019-05-17T21:02:08.807Z,3.67
2019-05-17T21:04:36.148Z,3.47
2019-05-17T21:07:03.944Z,4.47
2019-05-17T21:09:32.110Z,6.90
2019-05-17T21:12:00.161Z,7.57
2019-05-17T21:14:27.809Z,4.87
2019-05-17T21:16:55.235Z,5.10
2019-05-17T21:19:23.032Z,4.80
2019-05-17T21:21:50.571Z,3.40
2019-05-17T21:24:18.315Z,3.17
2019-05-17T21:26:45.819Z,3.20
2019-05-17T21:29:13.466Z,3.53
2019-05-17T21:31:40.995Z,3.20
2019-05-17T21:34:08.652Z,3.00
2019-05-17T21:36:36.356Z,3.10
2019-05-17T21:39:05.452Z,3.57
2019-05-17T21:41:33.065Z,3.83
2019-05-17T21:44:00.495Z,4.33
2019-05-17T21:46:28.453Z,3.90
2019-05-17T21:48:55.948Z,3.70
2019-05-17T21:51:23.374Z,4.97
2019-05-17T21:53:50.911Z,4.53
2019-05-17T21:56:18.521Z,4.10
2019-05-17T21:58:45.983Z,4.70
2019-05-17T22:01:16.917Z,3.50
2019-05-17T22:03:45.157Z,4.70
2019-05-17T22:06:13.213Z,4.00
2019-05-17T22:08:41.004Z,4.57
2019-05-17T22:11:08.552Z,5.70
2019-05-17T22:13:35.912Z,3.60
2019-05-17T22:16:18.233Z,3.80
2019-05-17T22:18:33.078Z,4.33
2019-05-17T22:21:00.640Z,3.77
2019-05-17T22:23:28.047Z,3.80
2019-05-17T22:25:55.878Z,3.43
2019-05-17T22:28:23.439Z,3.50
2019-05-17T22:30:50.935Z,3.80
2019-05-17T22:33:18.420Z,3.50
2019-05-17T22:35:46.161Z,3.90
2019-05-17T22:38:14.148Z,3.67
2019-05-17T22:40:41.912Z,3.70
2019-05-17T22:43:09.394Z,3.73
2019-05-17T22:45:37.251Z,3.50
2019-05-17T22:48:04.918Z,3.60
2019-05-17T22:50:32.377Z,2.93
2019-05-17T22:52:59.760Z,3.70
2019-05-17T22:55:27.261Z,3.20
2019-05-17T22:57:54.986Z,3.57
2019-05-17T23:00:22.512Z,3.40
2019-05-17T23:02:50.060Z,3.20
2019-05-17T23:05:25.664Z,4.00
2019-05-17T23:07:47.314Z,3.50
2019-05-17T23:10:14.659Z,3.63
2019-05-17T23:12:42.439Z,4.00
2019-05-17T23:15:09.988Z,3.60
2019-05-17T23:17:37.436Z,3.33
2019-05-17T23:20:05.168Z,3.67
2019-05-17T23:22:32.618Z,3.03
2019-05-17T23:25:00.077Z,3.90
2019-05-17T23:27:27.798Z,3.20
2019-05-17T23:29:55.903Z,3.90
2019-05-17T23:32:23.361Z,3.10
2019-05-17T23:34:50.851Z,2.70
2019-05-17T23:37:18.239Z,3.57
2019-05-17T23:39:46.408Z,4.37
2019-05-17T23:42:13.944Z,3.00
2019-05-17T23:44:43.165Z,3.80
2019-05-17T23:47:10.950Z,3.60
2019-05-17T23:49:38.720Z,3.17
2019-05-17T23:52:06.566Z,2.90
2019-05-17T23:54:33.928Z,3.20
2019-05-17T23:57:01.471Z,3.60
2019-05-17T23:59:28.849Z,3.27
